Time;durP1;ratioP1;P1;durP2;ratioP2;P2;SDS_P1;SDS_P2;PMS_P1;PMS_P2;Temp;Humidity;BMP_temperature;BMP_pressure;BME280_temperature;BME280_humidity;BME280_pressure;Samples;Min_cycle;Max_cycle;Signal;HPM_P1;HPM_P2
2022/05/01 00:02:22;;;;;;;6.83;2.43;;;;;;;4.25;68.62;100374.14;1809380;78;23448;-51
2022/05/01 00:04:48;;;;;;;4.23;2.20;;;;;;;4.24;68.66;100376.81;1806257;78;21499;-49
2022/05/01 00:07:15;;;;;;;8.63;3.27;;;;;;;4.24;68.68;100377.70;1806935;78;21537;-49
2022/05/01 00:09:42;;;;;;;8.17;3.50;;;;;;;4.26;68.72;100384.31;1806297;77;21278;-51
2022/05/01 00:12:09;;;;;;;7.33;3.53;;;;;;;4.28;68.67;100380.73;1806595;78;21052;-49
2022/05/01 00:14:36;;;;;;;4.80;2.70;;;;;;;4.27;68.58;100378.97;1802923;78;21082;-49
2022/05/01 00:17:02;;;;;;;7.53;3.47;;;;;;;4.24;68.56;100384.81;1805796;78;21100;-49
2022/05/01 00:19:29;;;;;;;8.67;3.80;;;;;;;4.22;68.62;100384.83;1806120;78;21331;-48
2022/05/01 00:21:59;;;;;;;4.60;2.73;;;;;;;4.19;68.72;100382.19;1807245;78;21780;-49
2022/05/01 00:24:26;;;;;;;6.97;3.53;;;;;;;4.16;68.83;100385.79;1804402;78;21615;-48
2022/05/01 00:26:53;;;;;;;6.10;2.70;;;;;;;4.16;68.83;100389.79;1802416;78;20981;-49
2022/05/01 00:29:20;;;;;;;4.80;2.73;;;;;;;4.11;68.81;100386.73;1806965;78;21443;-50
2022/05/01 00:31:46;;;;;;;10.93;3.07;;;;;;;4.05;68.91;100389.02;1809081;78;21004;-50
2022/05/01 00:36:59;;;;;;;6.23;1.60;;;;;;;3.98;69.16;100398.44;1803826;78;21664;-49
2022/05/01 00:39:25;;;;;;;2.37;1.30;;;;;;;3.95;69.21;100394.47;1806376;78;21048;-48
2022/05/01 00:41:53;;;;;;;3.40;1.30;;;;;;;3.92;69.31;100398.03;1803096;78;21020;-51
2022/05/01 00:44:21;;;;;;;1.90;0.93;;;;;;;3.88;69.38;100394.99;1802483;78;21017;-49
2022/05/01 00:46:50;;;;;;;2.93;1.00;;;;;;;3.87;69.64;100393.67;1806050;78;20890;-50
2022/05/01 00:49:22;;;;;;;3.07;1.00;;;;;;;3.88;69.77;100394.11;1808628;78;20958;-49
2022/05/01 00:52:00;;;;;;;4.60;1.20;;;;;;;3.90;69.75;100397.64;1802133;78;22455;-49
2022/05/01 00:54:29;;;;;;;2.90;1.40;;;;;;;3.89;69.75;100394.55;1801152;78;21519;-50
2022/05/01 00:56:59;;;;;;;3.40;1.40;;;;;;;3.86;69.80;100391.91;1804043;78;21029;-49
2022/05/01 00:59:26;;;;;;;2.53;1.30;;;;;;;3.84;69.81;100392.36;1805566;78;21091;-49
2022/05/01 01:01:53;;;;;;;2.97;1.10;;;;;;;3.81;69.86;100393.30;1806215;78;21360;-48
2022/05/01 01:04:19;;;;;;;1.73;1.20;;;;;;;3.75;69.97;100394.22;1809374;78;20984;-51
2022/05/01 01:06:45;;;;;;;3.13;1.20;;;;;;;3.69;70.04;100394.74;1806706;78;21038;-51
2022/05/01 01:09:12;;;;;;;7.63;2.00;;;;;;;3.63;70.17;100394.37;1804281;78;21029;-49
2022/05/01 01:11:40;;;;;;;3.23;1.43;;;;;;;3.58;70.42;100397.95;1806761;78;21076;-48
2022/05/01 01:14:08;;;;;;;4.73;1.23;;;;;;;3.55;70.48;100391.34;1802669;78;20996;-49
2022/05/01 01:16:37;;;;;;;2.67;1.10;;;;;;;3.50;70.50;100399.36;1809286;78;21363;-49
2022/05/01 01:19:05;;;;;;;2.60;0.80;;;;;;;3.47;70.57;100396.75;1807382;78;20882;-49
2022/05/01 01:21:31;;;;;;;3.17;1.10;;;;;;;3.44;70.71;100394.10;1809930;78;21853;-48
2022/05/01 01:23:59;;;;;;;2.87;0.80;;;;;;;3.43;70.83;100397.66;1806071;78;21028;-49
2022/05/01 01:26:25;;;;;;;2.27;1.00;;;;;;;3.43;70.92;100405.20;1802960;78;21048;-50
2022/05/01 01:28:52;;;;;;;1.80;1.00;;;;;;;3.47;71.14;100405.17;1803571;78;22436;-49
2022/05/01 01:34:12;;;;;;;1.47;1.05;;;;;;;3.56;71.30;100399.33;1814090;78;21013;-50
2022/05/01 01:36:40;;;;;;;1.70;0.70;;;;;;;3.62;71.24;100395.27;1798922;78;21545;-50
2022/05/01 01:39:07;;;;;;;2.93;0.90;;;;;;;3.67;71.07;100404.08;1793043;78;21064;-51
2022/05/01 01:41:34;;;;;;;1.20;1.00;;;;;;;3.68;70.96;100408.50;1786532;79;21864;-50
2022/05/01 01:44:00;;;;;;;1.73;0.90;;;;;;;3.67;70.90;100405.41;1791677;79;21495;-50
2022/05/01 01:46:26;;;;;;;1.57;0.90;;;;;;;3.66;70.72;100408.08;1787156;79;21002;-50
2022/05/01 01:48:53;;;;;;;1.73;1.00;;;;;;;3.63;70.79;100408.12;1788344;79;21077;-50
2022/05/01 01:51:20;;;;;;;3.93;0.93;;;;;;;3.61;70.91;100408.58;1788427;79;21041;-50
2022/05/01 01:53:46;;;;;;;2.10;1.30;;;;;;;3.58;70.92;100414.81;1786762;79;21212;-51
2022/05/01 01:56:13;;;;;;;3.97;0.90;;;;;;;3.56;70.90;100419.73;1789219;79;21037;-49
2022/05/01 01:58:41;;;;;;;3.00;1.00;;;;;;;3.51;70.86;100418.88;1789494;79;21358;-50
2022/05/01 02:01:08;;;;;;;2.23;0.90;;;;;;;3.47;70.78;100418.05;1788562;79;21614;-50
2022/05/01 02:03:34;;;;;;;3.57;0.83;;;;;;;3.39;70.96;100418.11;1790281;79;21088;-49
2022/05/01 02:06:03;;;;;;;3.50;1.00;;;;;;;3.36;71.23;100418.12;1788972;79;22309;-50
2022/05/01 02:08:33;;;;;;;2.83;1.00;;;;;;;3.34;71.20;100419.91;1788989;79;21013;-49
2022/05/01 02:11:03;;;;;;;2.43;1.00;;;;;;;3.29;71.18;100420.41;1790643;79;21471;-49
2022/05/01 02:13:29;;;;;;;2.13;1.07;;;;;;;3.27;71.32;100425.30;1788647;79;21033;-49
2022/05/01 02:15:57;;;;;;;2.33;0.93;;;;;;;3.27;71.33;100429.29;1789263;79;21073;-50
2022/05/01 02:18:23;;;;;;;2.77;1.20;;;;;;;3.22;71.08;100428.45;1790430;79;21558;-50
2022/05/01 02:23:24;;;;;;;5.35;1.47;;;;;;;3.08;71.23;100431.20;1796910;79;21041;-49
2022/05/01 02:25:50;;;;;;;1.40;0.90;;;;;;;3.04;71.26;100428.14;1789509;79;21526;-49
2022/05/01 02:28:17;;;;;;;1.20;0.87;;;;;;;2.99;71.35;100427.27;1790412;79;21013;-49
2022/05/01 02:30:44;;;;;;;1.77;0.70;;;;;;;2.98;71.42;100428.16;1790870;79;21188;-50
2022/05/01 02:33:11;;;;;;;2.40;0.80;;;;;;;2.99;71.50;100433.92;1787221;79;21598;-53
2022/05/01 02:35:38;;;;;;;3.10;0.80;;;;;;;2.99;71.63;100422.84;1789207;79;21646;-49
2022/05/01 02:38:05;;;;;;;2.53;0.90;;;;;;;3.03;71.75;100427.26;1795603;78;21005;-49
2022/05/01 02:40:31;;;;;;;1.33;1.00;;;;;;;3.09;71.80;100426.32;1802977;78;20996;-49
2022/05/01 02:42:59;;;;;;;2.43;1.10;;;;;;;3.14;71.83;100422.31;1805762;78;21128;-50
2022/05/01 02:45:27;;;;;;;1.80;0.90;;;;;;;3.21;71.89;100429.34;1800847;78;21056;-49
2022/05/01 02:47:54;;;;;;;2.33;0.90;;;;;;;3.24;71.63;100431.96;1803158;78;21008;-49
2022/05/01 02:50:21;;;;;;;4.43;1.97;;;;;;;3.22;71.48;100424.47;1807407;78;21056;-50
2022/05/01 02:52:51;;;;;;;6.87;1.20;;;;;;;3.18;71.61;100424.92;1805029;78;21594;-49
2022/05/01 02:55:19;;;;;;;2.57;0.90;;;;;;;3.14;71.72;100425.86;1804789;78;21234;-49
2022/05/01 02:57:45;;;;;;;3.03;0.80;;;;;;;3.11;71.69;100426.31;1806527;78;20897;-50
2022/05/01 03:00:16;;;;;;;2.27;1.20;;;;;;;3.04;71.75;100429.03;1808147;78;20882;-50
2022/05/01 03:02:41;;;;;;;1.47;0.87;;;;;;;3.00;71.92;100425.05;1802546;77;21103;-50
2022/05/01 03:05:08;;;;;;;4.00;1.00;;;;;;;2.98;72.14;100427.72;1805967;78;21091;-49
2022/05/01 03:07:35;;;;;;;1.93;1.10;;;;;;;3.02;72.25;100432.58;1802700;78;21117;-49
2022/05/01 03:10:01;;;;;;;2.17;0.90;;;;;;;3.03;72.38;100433.91;1805081;77;21091;-49
2022/05/01 03:12:29;;;;;;;2.53;0.93;;;;;;;3.06;72.46;100437.45;1806160;78;21084;-49
2022/05/01 03:14:57;;;;;;;2.83;1.07;;;;;;;3.09;72.71;100438.73;1805627;78;21025;-49
2022/05/01 03:17:24;;;;;;;1.50;0.93;;;;;;;3.13;72.83;100438.72;1806923;78;21475;-47
2022/05/01 03:22:35;;;;;;;1.80;1.02;;;;;;;3.26;73.10;100440.37;1801536;78;21072;-47
2022/05/01 03:25:01;;;;;;;1.67;1.20;;;;;;;3.37;73.25;100439.85;1805262;78;21064;-49
2022/05/01 03:27:28;;;;;;;4.90;1.50;;;;;;;3.46;73.39;100444.66;1805823;78;21700;-47
2022/05/01 03:32:42;;;;;;;;;;;;;;;3.59;73.77;100441.87;1812105;78;21527;-47
2022/05/01 03:35:08;;;;;;;2.53;1.23;;;;;;;3.69;73.87;100437.34;1806679;78;20265;-48
2022/05/01 03:37:36;;;;;;;2.90;1.30;;;;;;;3.72;73.83;100439.55;1809947;78;21525;-48
2022/05/01 03:40:03;;;;;;;2.70;1.10;;;;;;;3.76;73.92;100439.05;1802652;78;20905;-48
2022/05/01 03:42:30;;;;;;;1.90;1.20;;;;;;;3.80;73.95;100444.34;1807827;78;20874;-47
2022/05/01 03:44:56;;;;;;;2.80;1.37;;;;;;;3.83;74.17;100443.41;1803353;78;21570;-47
2022/05/01 03:47:23;;;;;;;6.70;1.73;;;;;;;3.89;74.35;100444.70;1799789;78;21041;-48
2022/05/01 03:49:49;;;;;;;3.00;1.20;;;;;;;3.97;74.64;100444.17;1802157;78;21376;-48
2022/05/01 03:52:15;;;;;;;1.97;1.10;;;;;;;4.07;74.75;100436.97;1801703;78;21017;-49
2022/05/01 03:54:42;;;;;;;2.60;1.87;;;;;;;4.17;75.06;100442.59;1800439;78;21090;-48
2022/05/01 03:57:10;;;;;;;4.33;1.13;;;;;;;4.32;75.09;100441.11;1803632;78;22441;-48
2022/05/01 03:59:37;;;;;;;2.20;1.10;;;;;;;4.48;75.20;100440.02;1805141;78;21483;-48
2022/05/01 04:02:03;;;;;;;3.23;1.40;;;;;;;4.72;75.12;100436.14;1802656;78;21028;-50
2022/05/01 04:04:31;;;;;;;2.67;1.27;;;;;;;4.97;75.03;100434.45;1803270;78;20869;-48
2022/05/01 04:06:57;;;;;;;4.30;1.80;;;;;;;5.25;74.73;100432.69;1799767;78;20945;-48
2022/05/01 04:09:24;;;;;;;4.27;1.70;;;;;;;5.61;74.73;100431.66;1802118;78;21718;-51
2022/05/01 04:11:53;;;;;;;5.50;1.87;;;;;;;6.07;74.47;100428.59;1802024;78;21174;-49
2022/05/01 04:14:19;;;;;;;6.73;2.13;;;;;;;6.62;73.82;100426.59;1801679;78;21048;-49
2022/05/01 04:16:47;;;;;;;6.03;2.43;;;;;;;7.24;72.98;100427.82;1801498;78;21008;-48
2022/05/01 04:19:15;;;;;;;6.10;3.00;;;;;;;7.87;71.83;100433.37;1804041;78;21080;-48
2022/05/01 04:21:42;;;;;;;8.10;3.00;;;;;;;8.43;70.29;100425.58;1804702;78;21626;-49
2022/05/01 04:24:08;;;;;;;3.93;3.37;;;;;;;8.90;68.77;100427.33;1803136;78;21047;-49
2022/05/01 04:26:35;;;;;;;12.23;6.03;;;;;;;9.29;67.09;100430.09;1799832;78;21072;-49
2022/05/01 04:31:47;;;;;;;11.53;7.03;;;;;;;9.89;64.20;100428.97;1805643;78;21032;-49
2022/05/01 04:34:15;;;;;;;10.40;6.57;;;;;;;10.14;62.60;100435.70;1803629;78;21008;-49
2022/05/01 04:36:42;;;;;;;7.67;6.10;;;;;;;10.36;61.55;100431.83;1809578;78;21064;-49
2022/05/01 04:39:08;;;;;;;9.03;5.17;;;;;;;10.43;60.22;100428.86;1793439;78;21382;-49
2022/05/01 04:41:35;;;;;;;9.20;5.30;;;;;;;10.43;59.28;100427.51;1792435;79;21077;-50
2022/05/01 04:44:02;;;;;;;9.63;5.77;;;;;;;10.43;58.46;100432.02;1789447;79;21017;-50
2022/05/01 04:46:28;;;;;;;15.03;6.73;;;;;;;10.43;57.63;100432.89;1792512;79;21602;-49
2022/05/01 04:48:54;;;;;;;7.70;6.03;;;;;;;10.43;57.29;100430.20;1788976;78;21094;-49
2022/05/01 04:51:21;;;;;;;6.55;5.83;;;;;;;10.43;57.13;100432.02;1791591;79;21467;-49
2022/05/01 04:53:47;;;;;;;10.20;6.30;;;;;;;10.45;56.64;100429.68;1798290;79;21049;-49
2022/05/01 04:58:58;;;;;;;6.72;2.62;;;;;;;10.59;56.33;100433.19;1788798;79;21165;-50
2022/05/01 05:01:26;;;;;;;2.50;1.60;;;;;;;10.67;56.36;100427.05;1789792;78;21061;-50
2022/05/01 05:03:52;;;;;;;1.73;0.70;;;;;;;10.77;55.05;100427.58;1792315;79;21021;-50
2022/05/01 05:06:21;;;;;;;1.57;0.70;;;;;;;10.84;53.55;100426.41;1787648;79;21026;-51
2022/05/01 05:11:33;;;;;;;;;;;;;;;10.99;51.15;100429.84;1789970;79;21959;-50
2022/05/01 05:14:01;;;;;;;1.02;0.50;;;;;;;11.07;50.33;100434.45;1791548;79;21087;-50
2022/05/01 05:16:29;;;;;;;2.55;0.60;;;;;;;11.12;49.91;100436.52;1787891;78;21025;-51
2022/05/01 05:18:55;;;;;;;1.50;0.53;;;;;;;11.19;49.67;100433.11;1721834;79;21009;-50
2022/05/01 05:21:21;;;;;;;1.32;0.50;;;;;;;11.24;49.04;100433.31;1790427;79;21077;-50
2022/05/01 05:23:48;;;;;;;1.72;0.80;;;;;;;11.27;48.80;100430.98;1791414;79;21125;-51
2022/05/01 05:26:14;;;;;;;2.55;0.50;;;;;;;11.30;48.96;100433.09;1786978;79;21622;-50
2022/05/01 05:28:41;;;;;;;1.25;0.50;;;;;;;11.33;48.51;100434.30;1790949;79;21056;-50
2022/05/01 05:31:08;;;;;;;1.50;0.50;;;;;;;11.37;48.25;100432.38;1793061;79;21065;-50
2022/05/01 05:33:34;;;;;;;1.75;0.70;;;;;;;11.43;48.52;100432.58;1791837;79;21033;-50
2022/05/01 05:36:01;;;;;;;0.70;0.50;;;;;;;11.48;48.08;100434.16;1791344;79;23034;-51
2022/05/01 05:38:27;;;;;;;0.82;0.50;;;;;;;11.56;47.83;100440.59;1788229;78;21463;-50
2022/05/01 05:40:54;;;;;;;1.30;0.53;;;;;;;11.64;47.22;100435.28;1803402;78;21830;-50
2022/05/01 05:43:21;;;;;;;2.35;0.60;;;;;;;11.72;46.92;100433.61;1807561;78;21096;-50
2022/05/01 05:45:47;;;;;;;1.32;0.57;;;;;;;11.81;46.89;100431.91;1804148;78;21465;-50
2022/05/01 05:48:14;;;;;;;0.72;0.50;;;;;;;11.89;46.96;100428.41;1805541;78;21044;-50
2022/05/01 05:50:40;;;;;;;0.85;0.50;;;;;;;11.97;46.77;100419.52;1809351;78;21169;-50
2022/05/01 05:53:07;;;;;;;1.37;0.60;;;;;;;12.07;46.46;100426.73;1806777;78;21009;-55
2022/05/01 05:55:33;;;;;;;0.80;0.60;;;;;;;12.14;45.98;100416.08;1801964;78;21482;-53
2022/05/01 05:58:01;;;;;;;0.95;0.50;;;;;;;12.20;45.54;100416.27;1805984;78;21155;-50
2022/05/01 06:00:27;;;;;;;1.17;0.53;;;;;;;12.27;45.15;100422.67;1802436;78;22278;-50
2022/05/01 06:02:53;;;;;;;1.80;0.50;;;;;;;12.34;44.80;100424.14;1803342;78;21167;-51
2022/05/01 06:05:20;;;;;;;0.88;0.60;;;;;;;12.41;45.16;100424.30;1802180;78;21084;-50
2022/05/01 06:07:46;;;;;;;4.53;0.60;;;;;;;12.48;44.80;100419.49;1806669;78;21546;-49
2022/05/01 06:10:14;;;;;;;0.70;0.50;;;;;;;12.54;45.19;100422.38;1804985;78;21434;-49
2022/05/01 06:12:41;;;;;;;0.57;0.40;;;;;;;12.61;45.04;100415.27;1804768;78;21113;-48
2022/05/01 06:15:10;;;;;;;3.40;0.60;;;;;;;12.67;45.03;100415.02;1804715;78;21096;-49
2022/05/01 06:17:38;;;;;;;1.62;0.50;;;;;;;12.76;44.58;100416.41;1805721;78;21056;-51
2022/05/01 06:20:06;;;;;;;1.22;0.50;;;;;;;12.84;44.24;100417.77;1804356;78;21045;-50
2022/05/01 06:22:34;;;;;;;2.12;0.40;;;;;;;12.92;43.98;100421.96;1804626;78;21395;-49
2022/05/01 06:25:00;;;;;;;0.50;0.40;;;;;;;13.00;44.45;100421.13;1806954;78;21081;-50
2022/05/01 06:27:26;;;;;;;2.02;0.40;;;;;;;13.08;43.74;100418.45;1805856;78;20881;-50
2022/05/01 06:29:54;;;;;;;0.88;0.40;;;;;;;13.16;43.24;100418.12;1802455;78;21033;-50
2022/05/01 06:32:20;;;;;;;2.02;0.30;;;;;;;13.24;42.83;100419.97;1804654;78;21025;-51
2022/05/01 06:34:47;;;;;;;2.65;0.40;;;;;;;13.30;42.65;100414.73;1805620;78;21068;-51
2022/05/01 06:37:13;;;;;;;1.15;0.30;;;;;;;13.37;43.31;100416.18;1806320;78;21043;-51
2022/05/01 06:39:40;;;;;;;0.47;0.30;;;;;;;13.42;42.96;100420.43;1797383;78;21057;-50
2022/05/01 06:42:09;;;;;;;1.02;0.50;;;;;;;13.47;42.64;100409.38;1791374;79;20949;-50
2022/05/01 06:44:36;;;;;;;0.70;0.50;;;;;;;13.52;42.54;100412.27;1790776;78;22148;-50
2022/05/01 06:47:05;;;;;;;0.85;0.40;;;;;;;13.59;42.45;100408.77;1793252;79;21052;-49
2022/05/01 06:52:34;;;;;;;1.53;0.37;;;;;;;13.81;41.84;100407.20;1796042;78;22595;-50
2022/05/01 06:55:01;;;;;;;1.10;0.40;;;;;;;13.83;41.42;100412.06;1778009;80;20953;-51
2022/05/01 06:57:27;;;;;;;0.72;0.40;;;;;;;13.87;40.89;100408.22;1771648;80;21150;-48
2022/05/01 06:59:55;;;;;;;0.50;0.40;;;;;;;13.92;40.24;100404.34;1761109;80;21515;-48
2022/05/01 07:02:21;;;;;;;0.70;0.30;;;;;;;13.97;39.87;100409.51;1756075;80;20946;-49
2022/05/01 07:04:47;;;;;;;0.60;0.30;;;;;;;13.98;39.71;100403.14;1752978;80;21025;-49
2022/05/01 07:07:14;;;;;;;0.68;0.33;;;;;;;13.98;38.88;100399.08;1758806;80;21050;-47
2022/05/01 07:09:42;;;;;;;0.40;0.30;;;;;;;13.93;39.17;100407.45;1750078;80;21013;-52
2022/05/01 07:12:11;;;;;;;0.68;0.30;;;;;;;13.91;39.02;100401.23;1752138;80;21040;-49
2022/05/01 07:14:39;;;;;;;0.60;0.30;;;;;;;13.91;38.34;100401.72;1753832;80;22343;-49
2022/05/01 07:17:05;;;;;;;0.40;0.20;;;;;;;13.93;38.41;100390.34;1760176;80;21105;-48
2022/05/01 07:19:32;;;;;;;2.37;0.30;;;;;;;13.97;38.53;100390.56;1755628;80;21053;-51
2022/05/01 07:21:59;;;;;;;0.40;0.30;;;;;;;14.05;39.19;100387.45;1750363;80;21134;-50
2022/05/01 07:24:25;;;;;;;0.72;0.20;;;;;;;14.11;38.78;100385.33;1749209;80;21036;-50
2022/05/01 07:26:53;;;;;;;2.30;0.20;;;;;;;14.19;38.94;100393.04;1754106;80;21061;-49
2022/05/01 07:29:21;;;;;;;3.12;0.30;;;;;;;14.26;38.83;100392.63;1760044;80;21073;-49
2022/05/01 07:31:47;;;;;;;0.40;0.20;;;;;;;14.36;38.16;100391.19;1750590;80;21540;-49
2022/05/01 07:34:14;;;;;;;0.53;0.20;;;;;;;14.48;36.50;100388.78;1750798;80;21161;-51
2022/05/01 07:36:43;;;;;;;0.30;0.20;;;;;;;14.51;34.87;100392.69;1755019;80;21037;-53
2022/05/01 07:39:09;;;;;;;0.30;0.20;;;;;;;14.50;34.14;100390.46;1754696;80;21088;-55
2022/05/01 07:41:36;;;;;;;0.40;0.10;;;;;;;14.53;34.30;100383.53;1753767;80;21047;-51
2022/05/01 07:44:03;;;;;;;3.75;0.20;;;;;;;14.56;33.91;100384.70;1756933;80;21064;-50
2022/05/01 07:46:30;;;;;;;0.40;0.30;;;;;;;14.62;35.14;100377.61;1695109;83;21404;-51
2022/05/01 07:48:56;;;;;;;0.45;0.20;;;;;;;14.73;36.04;100374.29;1700404;83;21109;-50
2022/05/01 07:51:23;;;;;;;0.20;0.20;;;;;;;14.81;34.89;100373.86;1694646;83;21078;-52
2022/05/01 07:53:49;;;;;;;0.30;0.13;;;;;;;14.77;34.19;100374.53;1718685;82;21589;-52
2022/05/01 07:56:17;;;;;;;2.17;0.20;;;;;;;14.74;34.61;100376.05;1712337;82;21586;-52
2022/05/01 07:58:44;;;;;;;0.23;0.20;;;;;;;14.66;33.49;100372.88;1715180;82;21174;-51
2022/05/01 08:01:10;;;;;;;0.80;0.20;;;;;;;14.66;33.49;100372.88;1715623;82;21092;-52
2022/05/01 08:06:22;;;;;;;;;;;;;;;14.74;34.67;100381.46;1697649;83;21873;-51
2022/05/01 08:08:50;;;;;;;0.62;0.20;;;;;;;14.81;33.96;100370.67;1719003;82;20196;-51
2022/05/01 08:11:17;;;;;;;0.33;0.20;;;;;;;14.86;34.18;100368.59;1690297;83;21638;-53
2022/05/01 08:13:44;;;;;;;0.40;0.20;;;;;;;14.94;33.16;100366.33;1676510;83;21648;-52
2022/05/01 08:16:11;;;;;;;0.20;0.13;;;;;;;14.98;31.88;100373.31;1702979;82;21091;-52
2022/05/01 08:21:22;;;;;;;0.30;0.13;;;;;;;14.89;31.87;100364.34;1711074;82;21095;-52
2022/05/01 08:23:49;;;;;;;0.20;0.20;;;;;;;14.87;31.53;100365.41;1689097;83;21149;-51
2022/05/01 08:26:17;;;;;;;2.58;0.20;;;;;;;14.85;32.50;100365.48;1715960;82;21083;-51
2022/05/01 08:28:45;;;;;;;0.40;0.20;;;;;;;14.87;32.75;100361.34;1712609;82;21032;-51
2022/05/01 08:31:11;;;;;;;0.98;0.20;;;;;;;14.90;32.10;100361.15;1704691;82;20947;-51
2022/05/01 08:33:39;;;;;;;0.40;0.20;;;;;;;14.94;32.17;100357.32;1690294;83;21051;-52
2022/05/01 08:36:06;;;;;;;0.72;0.20;;;;;;;14.97;32.71;100359.36;1691717;83;21206;-52
2022/05/01 08:38:33;;;;;;;1.32;0.20;;;;;;;15.00;32.33;100360.55;1690261;83;21078;-51
2022/05/01 08:40:59;;;;;;;0.42;0.20;;;;;;;15.00;31.97;100354.25;1700054;82;21001;-53
2022/05/01 08:43:26;;;;;;;0.40;0.20;;;;;;;14.95;31.61;100349.59;1712636;82;21103;-52
2022/05/01 08:46:15;;;;;;;0.30;0.10;;;;;;;14.95;31.61;100349.59;1709787;82;21062;-52
2022/05/01 08:49:06;;;;;;;0.25;0.20;;;;;;;14.96;31.84;100348.15;1690805;83;21207;-52
2022/05/01 08:51:40;;;;;;;0.30;0.20;;;;;;;14.96;31.39;100353.57;1700605;82;21477;-52
2022/05/01 08:54:08;;;;;;;0.15;0.10;;;;;;;14.95;32.03;100355.01;1698911;82;26619;-53
2022/05/01 08:56:36;;;;;;;0.40;0.20;;;;;;;14.96;31.16;100352.70;1697839;82;21047;-53
2022/05/01 08:59:05;;;;;;;1.95;0.30;;;;;;;14.94;31.11;100345.13;1696837;82;21071;-52
2022/05/01 09:01:35;;;;;;;0.40;0.20;;;;;;;14.87;31.20;100345.95;1695702;82;21409;-52
2022/05/01 09:04:04;;;;;;;0.85;0.20;;;;;;;14.89;31.75;100339.06;1696754;82;21496;-53
2022/05/01 09:06:31;;;;;;;0.20;0.10;;;;;;;14.89;31.75;100339.06;1742293;80;21482;-52
2022/05/01 09:08:58;;;;;;;0.93;0.30;;;;;;;14.93;31.15;100346.08;1739368;80;21049;-52
2022/05/01 09:14:09;;;;;;;1.10;0.13;;;;;;;14.97;31.05;100344.95;1741835;80;21264;-52
2022/05/01 09:16:37;;;;;;;0.47;0.20;;;;;;;15.02;31.66;100334.72;1743335;80;21050;-52
2022/05/01 09:19:03;;;;;;;0.20;0.20;;;;;;;15.14;32.66;100334.87;1739302;80;21122;-52
2022/05/01 09:21:51;;;;;;;0.40;0.20;;;;;;;15.23;31.35;100333.94;1739373;80;21442;-53
2022/05/01 09:24:27;;;;;;;3.90;0.23;;;;;;;15.35;31.07;100332.76;1742507;80;21360;-52
2022/05/01 09:26:55;;;;;;;0.20;0.20;;;;;;;15.40;30.60;100323.85;1746186;80;21735;-52
2022/05/01 09:29:23;;;;;;;0.70;0.20;;;;;;;15.50;30.40;100321.48;1743897;80;21325;-52
2022/05/01 09:31:55;;;;;;;0.95;0.30;;;;;;;15.63;30.35;100321.19;1743216;80;21005;-52
2022/05/01 09:34:31;;;;;;;0.40;0.20;;;;;;;15.72;30.32;100326.06;1747675;80;21071;-53
2022/05/01 09:36:59;;;;;;;0.40;0.30;;;;;;;15.79;29.89;100309.80;1742586;80;20920;-52
2022/05/01 09:39:28;;;;;;;0.30;0.20;;;;;;;15.84;30.56;100315.80;1744655;80;21312;-52
2022/05/01 09:41:55;;;;;;;0.30;0.20;;;;;;;15.93;30.13;100302.63;1738473;80;20895;-53
2022/05/01 09:44:22;;;;;;;0.40;0.23;;;;;;;15.97;30.89;100298.77;1745826;80;20908;-53
2022/05/01 09:46:50;;;;;;;0.40;0.23;;;;;;;15.98;29.22;100297.81;1747570;80;20905;-53
2022/05/01 09:49:18;;;;;;;0.37;0.30;;;;;;;15.91;29.02;100305.43;1745489;80;20956;-52
2022/05/01 09:51:48;;;;;;;0.30;0.20;;;;;;;15.86;29.55;100304.85;1744956;80;21764;-52
2022/05/01 09:54:26;;;;;;;0.50;0.30;;;;;;;15.91;30.25;100304.59;1747750;80;21037;-53
2022/05/01 09:57:00;;;;;;;0.40;0.20;;;;;;;16.03;29.95;100298.38;1751730;80;20978;-52
2022/05/01 09:59:28;;;;;;;1.05;0.30;;;;;;;16.14;29.75;100299.95;1750321;80;21034;-52
2022/05/01 10:02:04;;;;;;;2.95;0.30;;;;;;;16.17;29.24;100301.10;1744993;80;21012;-52
2022/05/01 10:04:33;;;;;;;0.42;0.33;;;;;;;16.20;29.65;100298.20;1746379;80;21459;-52
2022/05/01 10:07:00;;;;;;;0.45;0.33;;;;;;;16.22;29.43;100292.20;1750612;80;21695;-52
2022/05/01 10:09:31;;;;;;;1.57;0.37;;;;;;;16.26;29.68;100291.02;1744968;80;21349;-53
2022/05/01 10:12:00;;;;;;;3.92;0.42;;;;;;;16.30;29.99;100299.38;1755852;80;21053;-52
2022/05/01 10:14:26;;;;;;;0.60;0.40;;;;;;;16.26;30.15;100291.02;1750697;80;20974;-52
2022/05/01 10:16:54;;;;;;;0.80;0.40;;;;;;;16.22;30.33;100290.84;1744817;80;21098;-52
2022/05/01 10:19:26;;;;;;;0.78;0.40;;;;;;;16.17;29.98;100290.23;1752187;80;21501;-52
2022/05/01 10:21:56;;;;;;;2.62;1.02;;;;;;;16.16;31.69;100288.52;1753054;80;21567;-52
2022/05/01 10:24:21;;;;;;;0.68;0.40;;;;;;;16.26;30.61;100293.25;1749480;80;21061;-53
2022/05/01 10:26:53;;;;;;;1.10;0.40;;;;;;;16.35;29.72;100280.06;1753320;80;21169;-51
2022/05/01 10:29:34;;;;;;;2.10;0.60;;;;;;;16.41;30.05;100288.72;1751829;80;21079;-52
2022/05/01 10:32:27;;;;;;;1.90;0.55;;;;;;;16.45;29.56;100281.22;1752206;80;21090;-53
2022/05/01 10:35:45;;;;;;;1.17;0.40;;;;;;;16.44;29.42;100276.76;1745270;80;21514;-52
2022/05/01 10:38:34;;;;;;;0.42;0.30;;;;;;;16.41;30.23;100277.84;1745675;80;21085;-53
2022/05/01 10:41:00;;;;;;;0.60;0.40;;;;;;;16.41;30.25;100275.62;1744631;80;22211;-55
2022/05/01 10:43:36;;;;;;;0.45;0.30;;;;;;;16.37;29.26;100283.56;1746724;80;21317;-53
2022/05/01 10:46:19;;;;;;;1.30;0.40;;;;;;;16.24;29.61;100280.77;1749261;80;21462;-53
2022/05/01 10:48:45;;;;;;;1.50;0.40;;;;;;;16.12;29.87;100276.09;1748501;80;26577;-53
2022/05/01 10:51:38;;;;;;;0.55;0.35;;;;;;;16.07;30.20;100282.30;1750159;80;21564;-57
2022/05/01 10:54:19;;;;;;;1.10;0.40;;;;;;;16.02;29.83;100277.63;1745220;80;21046;-53
2022/05/01 10:56:49;;;;;;;0.60;0.40;;;;;;;15.97;29.78;100275.69;1746308;80;22207;-52
2022/05/01 10:59:38;;;;;;;1.95;0.40;;;;;;;15.93;30.46;100285.86;1747519;80;21081;-52
2022/05/01 11:02:24;;;;;;;2.20;0.40;;;;;;;15.93;31.14;100276.84;1743771;80;21683;-52
2022/05/01 11:04:53;;;;;;;0.60;0.40;;;;;;;15.93;30.34;100276.84;1748690;80;21067;-53
2022/05/01 11:07:21;;;;;;;0.90;0.40;;;;;;;15.86;30.24;100274.52;1744076;80;21058;-53
2022/05/01 11:09:49;;;;;;;0.98;0.40;;;;;;;15.85;30.52;100270.53;1753739;80;21206;-52
2022/05/01 11:12:19;;;;;;;0.50;0.40;;;;;;;15.86;30.67;100270.92;1753815;80;21511;-53
2022/05/01 11:14:57;;;;;;;1.12;0.60;;;;;;;15.89;30.62;100266.19;1736942;80;21033;-52
2022/05/01 11:17:46;;;;;;;0.80;0.50;;;;;;;15.92;31.25;100269.17;1748755;80;21633;-52
2022/05/01 11:20:25;;;;;;;1.20;0.40;;;;;;;15.90;30.61;100261.63;1754396;80;21651;-52
2022/05/01 11:22:53;;;;;;;1.27;0.33;;;;;;;15.92;30.87;100256.08;1750812;80;21104;-52
2022/05/01 11:25:32;;;;;;;1.15;0.40;;;;;;;15.96;31.40;100254.45;1751201;80;21067;-52
2022/05/01 11:27:58;;;;;;;0.68;0.50;;;;;;;16.04;31.57;100248.06;1746389;80;21609;-53
2022/05/01 11:30:33;;;;;;;0.70;0.40;;;;;;;16.10;31.09;100249.02;1743341;80;21025;-53
2022/05/01 11:33:03;;;;;;;4.12;0.47;;;;;;;16.16;31.05;100244.55;1741495;80;21512;-53
2022/05/01 11:36:00;;;;;;;1.95;0.45;;;;;;;16.26;31.49;100241.64;1746382;80;21486;-53
2022/05/01 11:38:47;;;;;;;2.95;0.50;;;;;;;16.33;31.47;100242.63;1750046;80;21452;-53
2022/05/01 11:41:15;;;;;;;0.72;0.50;;;;;;;16.47;31.51;100244.84;1749228;80;21079;-53
2022/05/01 11:43:43;;;;;;;0.40;0.40;;;;;;;16.57;30.80;100236.48;1752226;80;21049;-53
2022/05/01 11:46:18;;;;;;;0.75;0.50;;;;;;;16.64;30.89;100236.98;1748315;80;21043;-53
2022/05/01 11:48:44;;;;;;;1.32;0.50;;;;;;;16.70;30.32;100242.48;1756541;80;21634;-54
2022/05/01 11:51:10;;;;;;;2.12;0.45;;;;;;;16.69;30.75;100235.30;1746496;80;21092;-53
2022/05/01 11:53:37;;;;;;;1.15;0.50;;;;;;;16.71;30.85;100238.80;1748534;80;21567;-52
2022/05/01 12:04:36;;;;;;;1.37;0.57;;;;;;;16.50;29.30;100232.39;1739355;80;21090;-51
2022/05/01 12:07:17;;;;;;;4.33;0.50;;;;;;;16.42;30.13;100233.86;1736786;80;21085;-52
2022/05/01 12:09:47;;;;;;;1.80;0.40;;;;;;;16.40;30.33;100234.47;1746828;80;20860;-53
2022/05/01 12:12:19;;;;;;;0.88;0.40;;;;;;;16.40;30.45;100230.39;1748087;80;20872;-52
2022/05/01 12:14:47;;;;;;;1.02;0.50;;;;;;;16.36;29.67;100226.98;1742583;80;21094;-52
2022/05/01 12:17:16;;;;;;;1.12;0.47;;;;;;;16.32;29.94;100231.38;1743082;80;20978;-51
2022/05/01 12:19:46;;;;;;;0.95;0.40;;;;;;;16.31;29.90;100230.50;1743860;80;21086;-54